Lone Tree, Illinois
Current Conditions -  °F | °C
As of 8:35 PM on Friday 24 Oct 2014 (Local Time) from KC75 Reporting Station
Broken Clouds Broken Clouds  
Wind Chill: 15°   Ceiling: 6500
Heat Index: 15°   Visibility: 10mi
Dew Point: 10°   Wind: 3mph
Humidity: 73%   Direction: 190°S
Pressure: 29.95"   Gusts: NA
Location:  41.2776°N, 89.5099°W
Report Text: KC75 250135Z AUTO 19003KT 10SM SCT035 SCT050 BKN065 15/10 A2995 RMK AO2 T01490101
Loading
Personal Weather Stations






























Interactive Weather Map
Tropical Storm Tracking
New forecast layout! Learn more

10-Day Weather Forecast

Advertisements
Track Severe Weather on mobile